Terminal Aerodrome Forecast
Issued by NWS Upton, NY

Home | Current Version | Previous Version | Text Only | Print | Product List | Glossary On
Versions: 1 2 3 4 5 6 7 8 9 10 11 12 13 14 15 16 17 18 19 20 21 22 23 24 25
686
FTUS41 KOKX 110833 AAA
TAFISP
TAF AMD
KISP 110833Z 1109/1206 29013G20KT P6SM BKN035
      TEMPO 1109/1111 3SM -SN BKN025
     FM111400 29019G30KT P6SM BKN040
     FM120200 30015G22KT P6SM FEW040=

USA.gov is the U.S. government's official web portal to all federal, state and local government web resources and services.